createdAt,value
2018-02-20T00:01:53.270Z,29.60
2018-02-20T00:04:19.666Z,23.40
2018-02-20T00:06:46.100Z,27.73
2018-02-20T00:09:12.529Z,22.10
2018-02-20T00:11:39.030Z,26.83
2018-02-20T00:14:05.429Z,24.53
2018-02-20T00:16:31.822Z,32.33
2018-02-20T00:18:58.238Z,24.60
2018-02-20T00:21:25.384Z,25.63
2018-02-20T00:23:52.554Z,26.63
2018-02-20T00:26:19.691Z,21.70
2018-02-20T00:28:46.814Z,25.40
2018-02-20T00:31:13.230Z,27.00
2018-02-20T00:33:39.613Z,24.70
2018-02-20T00:36:06.123Z,25.00
2018-02-20T00:38:32.553Z,22.73
2018-02-20T00:40:58.939Z,23.73
2018-02-20T00:43:25.314Z,25.77
2018-02-20T00:45:51.770Z,27.20
2018-02-20T00:48:19.008Z,29.17
2018-02-20T00:50:45.486Z,23.87
2018-02-20T00:53:11.914Z,21.07
2018-02-20T00:55:38.294Z,27.57
2018-02-20T00:58:04.669Z,29.67
2018-02-20T01:00:31.085Z,26.73
2018-02-20T01:02:57.501Z,26.50
2018-02-20T01:05:24.666Z,29.27
2018-02-20T01:07:52.199Z,29.33
2018-02-20T01:10:18.600Z,26.13
2018-02-20T01:12:44.992Z,26.43
2018-02-20T01:15:11.394Z,27.63
2018-02-20T01:17:37.778Z,28.27
2018-02-20T01:20:04.374Z,24.33
2018-02-20T01:22:30.773Z,21.23
2018-02-20T01:24:57.173Z,23.20
2018-02-20T01:27:23.636Z,22.00
2018-02-20T01:29:50.079Z,27.73
2018-02-20T01:32:16.461Z,26.93
2018-02-20T01:34:42.874Z,26.83
2018-02-20T01:37:09.314Z,28.03
2018-02-20T01:39:36.450Z,34.27
2018-02-20T01:42:02.831Z,26.13
2018-02-20T01:44:29.243Z,25.27
2018-02-20T01:46:56.472Z,28.03
2018-02-20T01:49:22.905Z,25.30
2018-02-20T01:51:49.327Z,23.67
2018-02-20T01:54:15.706Z,29.73
2018-02-20T01:56:42.205Z,22.80
2018-02-20T01:59:08.625Z,30.77
2018-02-20T02:01:35.042Z,25.03
2018-02-20T02:04:01.428Z,29.40
2018-02-20T02:06:28.586Z,25.43
2018-02-20T02:08:55.066Z,23.80
2018-02-20T02:11:21.463Z,30.50
2018-02-20T02:13:47.953Z,31.97
2018-02-20T02:16:15.121Z,30.83
2018-02-20T02:18:41.456Z,39.07
2018-02-20T02:21:08.617Z,29.40
2018-02-20T02:23:35.739Z,27.07
2018-02-20T02:26:02.131Z,28.00
2018-02-20T02:28:28.596Z,34.33
2018-02-20T02:30:54.979Z,33.77
2018-02-20T02:33:21.369Z,27.63
2018-02-20T02:35:47.799Z,29.83
2018-02-20T02:38:14.229Z,28.50
2018-02-20T02:40:41.483Z,28.87
2018-02-20T02:43:07.891Z,35.53
2018-02-20T02:45:34.278Z,30.80
2018-02-20T02:48:01.440Z,32.30
2018-02-20T02:50:27.853Z,36.37
2018-02-20T02:52:54.981Z,32.93
2018-02-20T02:55:21.364Z,32.60
2018-02-20T02:57:47.844Z,31.77
2018-02-20T03:00:14.238Z,29.33
2018-02-20T03:02:40.620Z,35.10
2018-02-20T03:05:07.810Z,36.03
2018-02-20T03:07:34.289Z,32.67
2018-02-20T03:10:00.723Z,34.27
2018-02-20T03:12:27.897Z,26.90
2018-02-20T03:14:55.021Z,35.53
2018-02-20T03:17:21.394Z,35.27
2018-02-20T03:19:47.811Z,32.87
2018-02-20T03:22:14.954Z,32.83
2018-02-20T03:24:41.394Z,40.70
2018-02-20T03:27:08.546Z,37.73
2018-02-20T03:29:35.661Z,33.77
2018-02-20T03:32:02.038Z,37.23
2018-02-20T03:34:28.432Z,36.77
2018-02-20T03:36:54.867Z,37.00
2018-02-20T03:39:21.271Z,35.00
2018-02-20T03:41:47.839Z,35.50
2018-02-20T03:44:14.372Z,38.40
2018-02-20T03:46:40.778Z,38.13
2018-02-20T03:49:07.342Z,33.27
2018-02-20T03:51:33.726Z,35.67
2018-02-20T03:54:00.116Z,34.43
2018-02-20T03:56:26.640Z,34.67
2018-02-20T03:58:53.025Z,36.00
2018-02-20T04:01:19.422Z,44.07
2018-02-20T04:03:46.633Z,36.00
2018-02-20T04:06:13.019Z,33.50
2018-02-20T04:08:39.417Z,35.27
2018-02-20T04:11:05.863Z,35.93
2018-02-20T04:13:32.246Z,41.07
2018-02-20T04:15:58.650Z,36.33
2018-02-20T04:18:25.028Z,35.73
2018-02-20T04:20:51.397Z,39.67
2018-02-20T04:23:18.536Z,35.97
2018-02-20T04:25:44.973Z,45.03
2018-02-20T04:28:12.147Z,35.30
2018-02-20T04:30:38.525Z,34.80
2018-02-20T04:33:04.919Z,38.40
2018-02-20T04:35:32.126Z,38.77
2018-02-20T04:37:58.506Z,36.93
2018-02-20T04:40:24.898Z,41.07
2018-02-20T04:42:52.036Z,33.23
2018-02-20T04:45:18.442Z,35.80
2018-02-20T04:47:44.905Z,32.00
2018-02-20T04:50:11.294Z,36.10
2018-02-20T04:52:37.685Z,36.00
2018-02-20T04:55:04.842Z,40.70
2018-02-20T04:57:31.967Z,36.57
2018-02-20T04:59:58.350Z,38.97
2018-02-20T05:02:24.762Z,35.60
2018-02-20T05:04:51.178Z,34.70
2018-02-20T05:07:17.566Z,40.30
2018-02-20T05:09:43.983Z,32.83
2018-02-20T05:12:10.416Z,40.20
2018-02-20T05:14:36.899Z,29.27
2018-02-20T05:17:03.313Z,37.23
2018-02-20T05:19:30.715Z,38.70
2018-02-20T05:21:57.879Z,39.53
2018-02-20T05:24:24.261Z,40.13
2018-02-20T05:26:50.596Z,33.70
2018-02-20T05:29:17.032Z,34.47
2018-02-20T05:31:44.989Z,37.13
2018-02-20T05:34:11.404Z,40.33
2018-02-20T05:36:37.815Z,39.10
2018-02-20T05:39:04.320Z,40.73
2018-02-20T05:41:31.464Z,37.20
2018-02-20T05:43:58.618Z,39.27
2018-02-20T05:46:25.798Z,42.93
2018-02-20T05:48:52.286Z,33.20
2018-02-20T05:51:18.739Z,34.77
2018-02-20T05:53:45.931Z,37.97
2018-02-20T05:56:12.375Z,37.17
2018-02-20T05:58:38.791Z,37.00
2018-02-20T06:01:05.203Z,38.47
2018-02-20T06:03:32.331Z,38.17
2018-02-20T06:05:58.700Z,34.73
2018-02-20T06:08:25.188Z,37.70
2018-02-20T06:10:51.622Z,39.13
2018-02-20T06:13:18.080Z,35.70
2018-02-20T06:15:44.536Z,34.37
2018-02-20T06:18:10.918Z,34.93
2018-02-20T06:20:37.329Z,45.30
2018-02-20T06:23:03.819Z,37.47
2018-02-20T06:25:30.954Z,34.13
2018-02-20T06:27:58.102Z,34.53
2018-02-20T06:30:25.250Z,35.13
2018-02-20T06:32:52.396Z,39.97
2018-02-20T06:35:19.519Z,38.13
2018-02-20T06:37:45.926Z,40.13
2018-02-20T06:40:12.326Z,34.77
2018-02-20T06:42:39.457Z,39.00
2018-02-20T06:45:06.644Z,37.17
2018-02-20T06:47:33.034Z,39.70
2018-02-20T06:49:59.433Z,38.27
2018-02-20T06:52:25.835Z,33.40
2018-02-20T06:54:52.251Z,42.13
2018-02-20T06:57:19.373Z,39.20
2018-02-20T06:59:46.015Z,41.33
2018-02-20T07:02:12.542Z,40.60
2018-02-20T07:04:38.944Z,38.73
2018-02-20T07:07:05.394Z,42.33
2018-02-20T07:09:31.848Z,38.80
2018-02-20T07:11:58.235Z,39.00
2018-02-20T07:14:24.696Z,41.40
2018-02-20T07:16:51.969Z,41.13
2018-02-20T07:19:18.359Z,39.33
2018-02-20T07:21:45.755Z,39.23
2018-02-20T07:24:13.637Z,40.00
2018-02-20T07:26:40.062Z,42.33
2018-02-20T07:29:06.473Z,53.57
2018-02-20T07:31:32.895Z,41.83
2018-02-20T07:33:59.262Z,46.50
2018-02-20T07:36:25.690Z,37.40
2018-02-20T07:38:52.062Z,39.07
2018-02-20T07:41:18.456Z,40.17
2018-02-20T07:43:45.633Z,36.83
2018-02-20T07:46:12.033Z,43.57
2018-02-20T07:48:38.382Z,39.67
2018-02-20T07:51:04.782Z,35.43
2018-02-20T07:53:31.229Z,40.67
2018-02-20T07:55:57.642Z,41.80
2018-02-20T07:58:24.854Z,44.07
2018-02-20T08:00:51.356Z,38.90
2018-02-20T08:03:17.731Z,40.27
2018-02-20T08:05:44.260Z,41.80
2018-02-20T08:08:10.678Z,36.37
2018-02-20T08:10:37.092Z,37.47
2018-02-20T08:13:04.336Z,51.87
2018-02-20T08:15:30.750Z,42.03
2018-02-20T08:17:57.144Z,49.67
2018-02-20T08:20:23.567Z,39.80
2018-02-20T08:22:57.048Z,36.53
2018-02-20T08:25:24.249Z,41.17
2018-02-20T08:27:50.671Z,46.07
2018-02-20T08:30:17.145Z,38.73
2018-02-20T08:32:45.009Z,38.27
2018-02-20T08:35:11.446Z,37.60
2018-02-20T08:37:37.850Z,40.27
2018-02-20T08:40:04.270Z,40.93
2018-02-20T08:42:30.705Z,41.03
2018-02-20T08:44:57.125Z,35.37
2018-02-20T08:47:23.537Z,45.30
2018-02-20T08:49:49.964Z,38.33
2018-02-20T08:52:17.092Z,41.43
2018-02-20T08:54:43.485Z,44.27
2018-02-20T08:57:09.881Z,39.40
2018-02-20T08:59:36.276Z,36.10
2018-02-20T09:02:02.678Z,37.80
2018-02-20T09:04:29.096Z,39.00
2018-02-20T09:06:55.485Z,34.73
2018-02-20T09:09:21.884Z,38.87
2018-02-20T09:11:48.456Z,34.60
2018-02-20T09:14:14.847Z,40.67
2018-02-20T09:16:41.276Z,37.03
2018-02-20T09:19:07.692Z,40.03
2018-02-20T09:21:34.095Z,34.93
2018-02-20T09:24:01.246Z,42.27
2018-02-20T09:26:27.638Z,45.63
2018-02-20T09:28:54.030Z,34.93
2018-02-20T09:31:20.448Z,40.10
2018-02-20T09:33:46.912Z,38.13
2018-02-20T09:36:13.291Z,45.57
2018-02-20T09:38:39.693Z,41.03
2018-02-20T09:41:06.263Z,32.03
2018-02-20T09:43:32.645Z,37.70
2018-02-20T09:45:59.050Z,40.43
2018-02-20T09:48:26.214Z,45.57
2018-02-20T09:50:52.878Z,40.10
2018-02-20T09:53:19.263Z,44.07
2018-02-20T09:55:46.434Z,39.10
2018-02-20T09:58:12.850Z,40.53
2018-02-20T10:00:39.981Z,45.33
2018-02-20T10:03:06.623Z,37.00
2018-02-20T10:05:33.051Z,41.37
2018-02-20T10:07:59.464Z,37.57
2018-02-20T10:10:25.922Z,33.73
2018-02-20T10:12:52.323Z,36.57
2018-02-20T10:15:18.710Z,45.43
2018-02-20T10:17:46.230Z,33.53
2018-02-20T10:20:13.403Z,36.13
2018-02-20T10:22:39.789Z,41.63
2018-02-20T10:25:06.201Z,36.30
2018-02-20T10:27:32.599Z,42.00
2018-02-20T10:29:58.982Z,48.40
2018-02-20T10:32:25.403Z,36.63
2018-02-20T10:34:51.866Z,32.97
2018-02-20T10:37:18.275Z,41.10
2018-02-20T10:39:44.754Z,40.57
2018-02-20T10:42:11.138Z,41.10
2018-02-20T10:44:37.726Z,40.37
2018-02-20T10:47:04.255Z,36.13
2018-02-20T10:49:32.146Z,45.20
2018-02-20T10:51:59.276Z,39.70
2018-02-20T10:54:25.686Z,42.60
2018-02-20T10:56:52.115Z,41.43
2018-02-20T10:59:18.505Z,44.43
2018-02-20T11:01:45.661Z,38.87
2018-02-20T11:04:12.062Z,43.87
2018-02-20T11:06:38.462Z,37.87
2018-02-20T11:09:04.866Z,43.10
2018-02-20T11:11:31.261Z,39.07
2018-02-20T11:13:58.397Z,41.23
2018-02-20T11:16:24.832Z,36.20
2018-02-20T11:18:51.242Z,38.67
2018-02-20T11:21:17.639Z,41.67
2018-02-20T11:23:44.071Z,44.97
2018-02-20T11:26:10.485Z,46.13
2018-02-20T11:28:37.615Z,37.73
2018-02-20T11:31:04.042Z,36.50
2018-02-20T11:33:30.454Z,42.40
2018-02-20T11:35:56.910Z,40.10
2018-02-20T11:38:24.086Z,37.87
2018-02-20T11:40:51.240Z,35.03
2018-02-20T11:43:18.384Z,35.67
2018-02-20T11:45:45.598Z,40.87
2018-02-20T11:48:12.055Z,34.23
2018-02-20T11:50:38.479Z,36.50
2018-02-20T11:53:04.904Z,41.30
2018-02-20T11:55:31.294Z,40.13
2018-02-20T11:57:57.692Z,29.60
2018-02-20T12:00:24.135Z,37.10
2018-02-20T12:02:50.510Z,34.47
2018-02-20T12:05:16.934Z,38.47
2018-02-20T12:07:43.382Z,35.50
2018-02-20T12:10:09.810Z,34.10
2018-02-20T12:12:36.208Z,36.60
2018-02-20T12:15:02.645Z,35.40
2018-02-20T12:17:29.111Z,40.57
2018-02-20T12:19:55.561Z,33.63
2018-02-20T12:22:22.771Z,48.27
2018-02-20T12:24:49.261Z,34.50
2018-02-20T12:27:15.667Z,38.50
2018-02-20T12:29:42.228Z,35.80
2018-02-20T12:32:08.654Z,40.30
2018-02-20T12:34:35.036Z,28.80
2018-02-20T12:37:01.449Z,26.10
2018-02-20T12:39:28.574Z,30.73
2018-02-20T12:41:55.729Z,31.87
2018-02-20T12:44:22.941Z,28.13
2018-02-20T12:46:49.331Z,29.00
2018-02-20T12:49:16.455Z,27.80
2018-02-20T12:51:42.906Z,28.27
2018-02-20T12:54:10.030Z,28.00
2018-02-20T12:56:36.404Z,33.27
2018-02-20T12:59:03.625Z,34.27
2018-02-20T13:01:30.162Z,34.47
2018-02-20T13:03:56.554Z,35.80
2018-02-20T13:06:22.964Z,31.40
2018-02-20T13:08:49.377Z,32.50
2018-02-20T13:11:16.493Z,31.87
2018-02-20T13:13:43.692Z,37.30
2018-02-20T13:16:10.077Z,28.87
2018-02-20T13:18:36.464Z,36.17
2018-02-20T13:21:03.059Z,33.20
2018-02-20T13:23:29.442Z,34.93
2018-02-20T13:25:55.854Z,50.30
2018-02-20T13:28:23.004Z,49.67
2018-02-20T13:30:50.248Z,33.90
2018-02-20T13:33:16.626Z,32.70
2018-02-20T13:35:43.062Z,34.07
2018-02-20T13:38:09.623Z,40.43
2018-02-20T13:40:36.057Z,36.87
2018-02-20T13:43:02.485Z,44.43
2018-02-20T13:45:29.709Z,35.90
2018-02-20T13:47:56.118Z,38.10
2018-02-20T13:50:22.608Z,35.40
2018-02-20T13:52:48.999Z,36.83
2018-02-20T13:55:15.392Z,39.37
2018-02-20T13:57:42.546Z,34.17
2018-02-20T14:00:08.927Z,34.83
2018-02-20T14:02:35.322Z,48.40
2018-02-20T14:05:01.754Z,40.27
2018-02-20T14:07:28.149Z,38.73
2018-02-20T14:09:54.555Z,35.00
2018-02-20T14:12:20.966Z,27.73
2018-02-20T14:14:47.398Z,40.33
2018-02-20T14:17:13.827Z,38.00
2018-02-20T14:19:40.294Z,31.33
2018-02-20T14:22:06.688Z,35.57
2018-02-20T14:24:33.098Z,34.17
2018-02-20T14:27:00.276Z,55.13
2018-02-20T14:29:26.711Z,37.87
2018-02-20T14:31:53.128Z,41.37
2018-02-20T14:34:20.351Z,39.13
2018-02-20T14:36:46.781Z,32.73
2018-02-20T14:39:13.171Z,39.10
2018-02-20T14:41:39.610Z,39.53
2018-02-20T14:44:06.015Z,53.53
2018-02-20T14:46:32.515Z,39.20
2018-02-20T14:48:59.695Z,43.23
2018-02-20T14:51:26.168Z,45.90
2018-02-20T14:53:52.573Z,36.37
2018-02-20T14:56:19.169Z,46.80
2018-02-20T14:58:47.049Z,39.87
2018-02-20T15:01:14.193Z,40.43
2018-02-20T15:03:41.641Z,49.37
2018-02-20T15:06:08.047Z,47.47
2018-02-20T15:08:34.454Z,53.50
2018-02-20T15:11:00.896Z,40.90
2018-02-20T15:13:27.287Z,44.07
2018-02-20T15:15:54.444Z,48.33
2018-02-20T15:18:21.602Z,46.83
2018-02-20T15:20:48.270Z,56.17
2018-02-20T15:23:14.667Z,46.60
2018-02-20T15:25:41.838Z,53.53
2018-02-20T15:28:08.242Z,44.90
2018-02-20T15:30:35.387Z,44.17
2018-02-20T15:33:02.571Z,47.33
2018-02-20T15:35:28.971Z,57.03
2018-02-20T15:37:56.113Z,32.33
2018-02-20T15:40:22.553Z,51.80
2018-02-20T15:42:49.707Z,47.53
2018-02-20T15:45:16.945Z,46.23
2018-02-20T15:47:43.368Z,53.20
2018-02-20T15:50:09.759Z,49.03
2018-02-20T15:52:36.192Z,45.80
2018-02-20T15:55:02.658Z,50.80
2018-02-20T15:57:29.150Z,56.90
2018-02-20T15:59:55.645Z,53.47
2018-02-20T16:02:22.071Z,51.80
2018-02-20T16:04:48.455Z,54.77
2018-02-20T16:07:14.863Z,50.67
2018-02-20T16:09:42.046Z,49.63
2018-02-20T16:12:08.509Z,56.60
2018-02-20T16:14:35.062Z,47.17
2018-02-20T16:17:01.528Z,49.43
2018-02-20T16:19:27.922Z,56.20
2018-02-20T16:21:54.384Z,54.03
2018-02-20T16:24:20.874Z,46.47
2018-02-20T16:26:47.274Z,55.30
2018-02-20T16:29:13.667Z,50.10
2018-02-20T16:31:40.106Z,55.97
2018-02-20T16:34:06.492Z,58.60
2018-02-20T16:36:32.927Z,47.83
2018-02-20T16:38:59.338Z,51.03
2018-02-20T16:41:25.754Z,49.73
2018-02-20T16:43:52.157Z,53.27
2018-02-20T16:46:19.329Z,53.77
2018-02-20T16:48:46.468Z,54.77
2018-02-20T16:51:12.867Z,58.07
2018-02-20T16:53:39.303Z,48.47
2018-02-20T16:56:05.747Z,51.97
2018-02-20T16:58:32.142Z,53.97
2018-02-20T17:00:58.595Z,53.70
2018-02-20T17:03:24.978Z,50.43
2018-02-20T17:05:52.110Z,52.00
2018-02-20T17:08:18.551Z,51.33
2018-02-20T17:10:45.693Z,49.50
2018-02-20T17:13:12.123Z,50.67
2018-02-20T17:15:38.573Z,52.63
2018-02-20T17:18:04.981Z,52.37
2018-02-20T17:20:31.413Z,61.37
2018-02-20T17:22:58.610Z,55.17
2018-02-20T17:25:25.018Z,50.70
2018-02-20T17:27:51.436Z,56.20
2018-02-20T17:30:17.863Z,47.10
2018-02-20T17:32:44.301Z,49.90
2018-02-20T17:35:10.770Z,52.60
2018-02-20T17:37:37.215Z,49.47
2018-02-20T17:40:03.633Z,47.43
2018-02-20T17:42:30.054Z,52.40
2018-02-20T17:44:56.494Z,55.50
2018-02-20T17:47:22.910Z,49.40
2018-02-20T17:49:50.082Z,47.07
2018-02-20T17:52:16.510Z,49.37
2018-02-20T17:54:43.734Z,48.10
2018-02-20T17:57:10.148Z,52.80
2018-02-20T17:59:36.612Z,45.23
2018-02-20T18:02:03.753Z,52.10
2018-02-20T18:04:30.899Z,50.90
2018-02-20T18:06:57.343Z,51.07
2018-02-20T18:09:23.742Z,49.60
2018-02-20T18:11:50.152Z,48.53
2018-02-20T18:14:16.611Z,55.80
2018-02-20T18:16:43.030Z,51.77
2018-02-20T18:19:09.442Z,58.13
2018-02-20T18:21:35.875Z,57.10
2018-02-20T18:24:02.306Z,49.97
2018-02-20T18:26:28.715Z,52.53
2018-02-20T18:28:55.883Z,50.03
2018-02-20T18:31:22.306Z,53.60
2018-02-20T18:33:48.894Z,55.27
2018-02-20T18:36:15.315Z,49.63
2018-02-20T18:38:44.879Z,54.23
2018-02-20T18:41:11.462Z,47.63
2018-02-20T18:43:38.050Z,51.60
2018-02-20T18:46:05.186Z,52.60
2018-02-20T18:48:32.342Z,47.47
2018-02-20T18:50:58.766Z,51.20
2018-02-20T18:53:25.972Z,58.13
2018-02-20T18:55:52.381Z,53.30
2018-02-20T18:58:18.809Z,57.33
2018-02-20T19:00:45.218Z,47.40
2018-02-20T19:03:11.689Z,48.30
2018-02-20T19:05:38.105Z,51.53
2018-02-20T19:08:04.532Z,44.57
2018-02-20T19:10:31.684Z,48.53
2018-02-20T19:12:58.840Z,50.20
2018-02-20T19:15:25.233Z,50.13
2018-02-20T19:17:51.645Z,56.27
2018-02-20T19:20:18.210Z,51.27
2018-02-20T19:22:44.623Z,51.43
2018-02-20T19:25:11.053Z,51.20
2018-02-20T19:27:38.281Z,42.40
2018-02-20T19:30:04.669Z,57.90
2018-02-20T19:32:31.813Z,50.90
2018-02-20T19:34:58.997Z,50.83
2018-02-20T19:37:25.410Z,43.97
2018-02-20T19:39:52.547Z,43.20
2018-02-20T19:42:19.792Z,42.40
2018-02-20T19:44:46.170Z,49.87
2018-02-20T19:47:12.590Z,49.40
2018-02-20T19:49:39.036Z,49.87
2018-02-20T19:52:05.438Z,43.67
2018-02-20T19:54:32.612Z,50.40
2018-02-20T19:56:59.075Z,52.80
2018-02-20T19:59:25.520Z,52.93
2018-02-20T20:01:51.969Z,48.27
2018-02-20T20:04:19.163Z,51.27
2018-02-20T20:06:45.590Z,50.70
2018-02-20T20:09:11.995Z,53.40
2018-02-20T20:11:38.435Z,50.00
2018-02-20T20:14:04.884Z,45.60
2018-02-20T20:16:31.317Z,54.07
2018-02-20T20:18:57.757Z,59.27
2018-02-20T20:21:24.221Z,49.23
2018-02-20T20:23:50.675Z,49.50
2018-02-20T20:26:17.139Z,52.83
2018-02-20T20:28:44.275Z,56.72
2018-02-20T20:31:10.675Z,53.97
2018-02-20T20:33:37.142Z,49.60
2018-02-20T20:36:03.579Z,48.57
2018-02-20T20:38:30.055Z,53.43
2018-02-20T20:40:56.541Z,60.20
2018-02-20T20:43:22.958Z,61.60
2018-02-20T20:45:49.353Z,59.33
2018-02-20T20:48:15.781Z,60.27
2018-02-20T20:50:42.222Z,55.33
2018-02-20T20:53:08.666Z,54.53
2018-02-20T20:55:35.438Z,53.03
2018-02-20T20:58:02.623Z,55.97
2018-02-20T21:00:29.777Z,60.57
2018-02-20T21:02:56.213Z,64.87
2018-02-20T21:05:22.637Z,58.70
2018-02-20T21:07:49.774Z,61.47
2018-02-20T21:10:16.232Z,65.47
2018-02-20T21:12:42.636Z,63.23
2018-02-20T21:15:09.784Z,62.73
2018-02-20T21:17:36.219Z,71.67
2018-02-20T21:20:03.467Z,61.93
2018-02-20T21:22:29.898Z,70.57
2018-02-20T21:24:56.335Z,65.67
2018-02-20T21:27:22.740Z,63.50
2018-02-20T21:29:49.196Z,56.23
2018-02-20T21:32:15.618Z,66.83
2018-02-20T21:34:42.026Z,67.93
2018-02-20T21:37:08.401Z,61.90
2018-02-20T21:39:34.833Z,68.20
2018-02-20T21:42:01.981Z,75.43
2018-02-20T21:44:28.380Z,68.13
2018-02-20T21:46:54.842Z,64.23
2018-02-20T21:49:21.245Z,65.73
2018-02-20T21:51:47.663Z,71.30
2018-02-20T21:54:14.086Z,61.23
2018-02-20T21:56:40.470Z,66.20
2018-02-20T21:59:06.912Z,62.97
2018-02-20T22:01:33.355Z,71.90
2018-02-20T22:04:00.504Z,62.17
2018-02-20T22:06:27.652Z,61.20
2018-02-20T22:08:54.097Z,63.40
2018-02-20T22:11:21.229Z,64.67
2018-02-20T22:13:47.697Z,62.00
2018-02-20T22:16:21.010Z,68.50
2018-02-20T22:18:47.476Z,69.83
2018-02-20T22:21:13.907Z,66.20
2018-02-20T22:23:40.353Z,73.83
2018-02-20T22:26:06.766Z,62.60
2018-02-20T22:28:33.188Z,71.80
2018-02-20T22:30:59.609Z,74.20
2018-02-20T22:33:26.006Z,72.30
2018-02-20T22:35:52.384Z,70.03
2018-02-20T22:38:18.816Z,68.27
2018-02-20T22:40:45.248Z,73.10
2018-02-20T22:43:11.721Z,76.07
2018-02-20T22:45:38.349Z,76.27
2018-02-20T22:48:05.511Z,69.77
2018-02-20T22:50:31.881Z,73.83
2018-02-20T22:52:58.291Z,76.67
2018-02-20T22:55:25.452Z,74.37
2018-02-20T22:57:51.851Z,80.77
2018-02-20T23:00:19.078Z,76.57
2018-02-20T23:02:45.492Z,71.43
2018-02-20T23:05:11.899Z,74.33
2018-02-20T23:07:38.341Z,67.00
2018-02-20T23:10:04.750Z,79.07
2018-02-20T23:12:31.877Z,76.97
2018-02-20T23:14:59.045Z,85.13
2018-02-20T23:17:25.481Z,77.23
2018-02-20T23:19:52.607Z,74.57
2018-02-20T23:22:19.787Z,78.73
2018-02-20T23:24:46.174Z,71.67
2018-02-20T23:27:12.594Z,78.00
2018-02-20T23:29:39.044Z,72.53
2018-02-20T23:32:05.443Z,86.87
2018-02-20T23:34:31.856Z,77.93
2018-02-20T23:36:59.077Z,83.33
2018-02-20T23:39:25.523Z,81.87
2018-02-20T23:41:51.923Z,88.43
2018-02-20T23:44:18.336Z,78.73
2018-02-20T23:46:44.719Z,86.03
2018-02-20T23:49:11.143Z,74.90
2018-02-20T23:51:37.674Z,94.47
2018-02-20T23:54:04.078Z,88.30
2018-02-20T23:56:30.462Z,91.17
2018-02-20T23:58:57.652Z,83.50
